sensor_id;sensor_type;location;lat;lon;timestamp;temperature;humidity
17483;DHT22;8858;52.308;20.994;2023-10-19T00:00:49;5.70;99.90
17483;DHT22;8858;52.308;20.994;2023-10-19T00:03:18;5.70;99.90
17483;DHT22;8858;52.308;20.994;2023-10-19T00:05:46;5.60;99.90
17483;DHT22;8858;52.308;20.994;2023-10-19T00:08:16;5.60;99.90
17483;DHT22;8858;52.308;20.994;2023-10-19T00:10:52;5.60;99.90
17483;DHT22;8858;52.308;20.994;2023-10-19T00:13:23;5.60;99.90
17483;DHT22;8858;52.308;20.994;2023-10-19T00:15:53;5.60;99.90
17483;DHT22;8858;52.308;20.994;2023-10-19T00:18:23;5.60;99.90
17483;DHT22;8858;52.308;20.994;2023-10-19T00:20:54;5.50;99.90
17483;DHT22;8858;52.308;20.994;2023-10-19T00:23:29;5.50;99.90
17483;DHT22;8858;52.308;20.994;2023-10-19T00:26:00;5.50;99.90
17483;DHT22;8858;52.308;20.994;2023-10-19T00:28:36;5.50;99.90
17483;DHT22;8858;52.308;20.994;2023-10-19T00:31:06;5.50;99.90
17483;DHT22;8858;52.308;20.994;2023-10-19T00:33:35;5.40;99.90
17483;DHT22;8858;52.308;20.994;2023-10-19T00:36:09;5.40;99.90
17483;DHT22;8858;52.308;20.994;2023-10-19T00:38:42;5.40;99.90
17483;DHT22;8858;52.308;20.994;2023-10-19T00:41:20;5.30;99.90
17483;DHT22;8858;52.308;20.994;2023-10-19T00:43:51;5.30;99.90
17483;DHT22;8858;52.308;20.994;2023-10-19T00:46:31;5.30;99.90
17483;DHT22;8858;52.308;20.994;2023-10-19T00:49:09;5.30;99.90
17483;DHT22;8858;52.308;20.994;2023-10-19T00:51:44;5.20;99.90
17483;DHT22;8858;52.308;20.994;2023-10-19T00:54:26;5.20;99.90
17483;DHT22;8858;52.308;20.994;2023-10-19T00:57:00;5.20;99.90
17483;DHT22;8858;52.308;20.994;2023-10-19T00:59:34;5.20;99.90
17483;DHT22;8858;52.308;20.994;2023-10-19T01:02:05;5.20;99.90
17483;DHT22;8858;52.308;20.994;2023-10-19T01:04:49;5.10;99.90
17483;DHT22;8858;52.308;20.994;2023-10-19T01:07:43;5.10;99.90
17483;DHT22;8858;52.308;20.994;2023-10-19T01:10:13;5.10;99.90
17483;DHT22;8858;52.308;20.994;2023-10-19T01:12:47;5.10;99.90
17483;DHT22;8858;52.308;20.994;2023-10-19T01:15:18;5.10;99.90
17483;DHT22;8858;52.308;20.994;2023-10-19T01:17:51;5.10;99.90
17483;DHT22;8858;52.308;20.994;2023-10-19T01:20:21;5.10;99.90
17483;DHT22;8858;52.308;20.994;2023-10-19T01:23:03;5.10;99.90
17483;DHT22;8858;52.308;20.994;2023-10-19T01:25:52;5.10;99.90
17483;DHT22;8858;52.308;20.994;2023-10-19T01:28:28;5.10;99.90
17483;DHT22;8858;52.308;20.994;2023-10-19T01:31:14;5.10;99.90
17483;DHT22;8858;52.308;20.994;2023-10-19T01:33:44;5.00;99.90
17483;DHT22;8858;52.308;20.994;2023-10-19T01:36:13;5.00;99.90
17483;DHT22;8858;52.308;20.994;2023-10-19T01:38:54;5.00;99.90
17483;DHT22;8858;52.308;20.994;2023-10-19T01:41:23;5.00;99.90
17483;DHT22;8858;52.308;20.994;2023-10-19T01:43:54;5.00;99.90
17483;DHT22;8858;52.308;20.994;2023-10-19T01:46:23;5.00;99.90
17483;DHT22;8858;52.308;20.994;2023-10-19T01:48:53;5.00;99.90
17483;DHT22;8858;52.308;20.994;2023-10-19T01:51:23;5.00;99.90
17483;DHT22;8858;52.308;20.994;2023-10-19T01:53:53;5.00;99.90
17483;DHT22;8858;52.308;20.994;2023-10-19T01:56:23;5.00;99.90
17483;DHT22;8858;52.308;20.994;2023-10-19T01:58:53;5.00;99.90
17483;DHT22;8858;52.308;20.994;2023-10-19T02:01:22;5.00;99.90
17483;DHT22;8858;52.308;20.994;2023-10-19T02:03:59;5.00;99.90
17483;DHT22;8858;52.308;20.994;2023-10-19T02:06:29;4.90;99.90
17483;DHT22;8858;52.308;20.994;2023-10-19T02:09:05;4.90;99.90
17483;DHT22;8858;52.308;20.994;2023-10-19T02:11:50;4.90;99.90
17483;DHT22;8858;52.308;20.994;2023-10-19T02:14:20;4.90;99.90
17483;DHT22;8858;52.308;20.994;2023-10-19T02:16:51;4.80;99.90
17483;DHT22;8858;52.308;20.994;2023-10-19T02:19:24;4.80;99.90
17483;DHT22;8858;52.308;20.994;2023-10-19T02:21:56;4.80;99.90
17483;DHT22;8858;52.308;20.994;2023-10-19T02:24:25;4.80;99.90
17483;DHT22;8858;52.308;20.994;2023-10-19T02:26:56;4.80;99.90
17483;DHT22;8858;52.308;20.994;2023-10-19T02:29:23;4.80;99.90
17483;DHT22;8858;52.308;20.994;2023-10-19T02:31:54;4.70;99.90
17483;DHT22;8858;52.308;20.994;2023-10-19T02:34:24;4.70;99.90
17483;DHT22;8858;52.308;20.994;2023-10-19T02:36:53;4.70;99.90
17483;DHT22;8858;52.308;20.994;2023-10-19T02:39:21;4.70;99.90
17483;DHT22;8858;52.308;20.994;2023-10-19T02:41:56;4.70;99.90
17483;DHT22;8858;52.308;20.994;2023-10-19T02:44:23;4.60;99.90
17483;DHT22;8858;52.308;20.994;2023-10-19T02:46:55;4.60;99.90
17483;DHT22;8858;52.308;20.994;2023-10-19T02:49:29;4.60;99.90
17483;DHT22;8858;52.308;20.994;2023-10-19T02:52:01;4.60;99.90
17483;DHT22;8858;52.308;20.994;2023-10-19T02:54:31;4.60;99.90
17483;DHT22;8858;52.308;20.994;2023-10-19T02:57:03;4.60;99.90
17483;DHT22;8858;52.308;20.994;2023-10-19T02:59:35;4.60;99.90
17483;DHT22;8858;52.308;20.994;2023-10-19T03:02:04;4.60;99.90
17483;DHT22;8858;52.308;20.994;2023-10-19T03:04:34;4.60;99.90
17483;DHT22;8858;52.308;20.994;2023-10-19T03:07:03;4.60;99.90
17483;DHT22;8858;52.308;20.994;2023-10-19T03:09:31;4.50;99.90
17483;DHT22;8858;52.308;20.994;2023-10-19T03:12:05;4.50;99.90
17483;DHT22;8858;52.308;20.994;2023-10-19T03:14:38;4.50;99.90
17483;DHT22;8858;52.308;20.994;2023-10-19T03:17:08;4.50;99.90
17483;DHT22;8858;52.308;20.994;2023-10-19T03:19:38;4.50;99.90
17483;DHT22;8858;52.308;20.994;2023-10-19T03:22:07;4.50;99.90
17483;DHT22;8858;52.308;20.994;2023-10-19T03:24:35;4.50;99.90
17483;DHT22;8858;52.308;20.994;2023-10-19T03:27:07;4.40;99.90
17483;DHT22;8858;52.308;20.994;2023-10-19T03:29:43;4.40;99.90
17483;DHT22;8858;52.308;20.994;2023-10-19T03:32:15;4.40;99.90
17483;DHT22;8858;52.308;20.994;2023-10-19T03:34:44;4.30;99.90
17483;DHT22;8858;52.308;20.994;2023-10-19T03:37:17;4.40;99.90
17483;DHT22;8858;52.308;20.994;2023-10-19T03:39:48;4.30;99.90
17483;DHT22;8858;52.308;20.994;2023-10-19T03:42:20;4.30;99.90
17483;DHT22;8858;52.308;20.994;2023-10-19T03:44:51;4.30;99.90
17483;DHT22;8858;52.308;20.994;2023-10-19T03:47:24;4.30;99.90
17483;DHT22;8858;52.308;20.994;2023-10-19T03:50:00;4.30;99.90
17483;DHT22;8858;52.308;20.994;2023-10-19T03:52:35;4.20;99.90
17483;DHT22;8858;52.308;20.994;2023-10-19T03:55:07;4.20;99.90
17483;DHT22;8858;52.308;20.994;2023-10-19T03:57:43;4.20;99.90
17483;DHT22;8858;52.308;20.994;2023-10-19T04:00:18;4.20;99.90
17483;DHT22;8858;52.308;20.994;2023-10-19T04:02:48;4.20;99.90
17483;DHT22;8858;52.308;20.994;2023-10-19T04:05:23;4.10;99.90
17483;DHT22;8858;52.308;20.994;2023-10-19T04:07:56;4.20;99.90
17483;DHT22;8858;52.308;20.994;2023-10-19T04:10:29;4.20;99.90
17483;DHT22;8858;52.308;20.994;2023-10-19T04:13:07;4.20;99.90
17483;DHT22;8858;52.308;20.994;2023-10-19T04:15:40;4.20;99.90
17483;DHT22;8858;52.308;20.994;2023-10-19T04:18:12;4.10;99.90
17483;DHT22;8858;52.308;20.994;2023-10-19T04:20:41;4.10;99.90
17483;DHT22;8858;52.308;20.994;2023-10-19T04:23:23;4.10;99.90
17483;DHT22;8858;52.308;20.994;2023-10-19T04:25:54;4.10;99.90
17483;DHT22;8858;52.308;20.994;2023-10-19T04:28:29;4.10;99.90
17483;DHT22;8858;52.308;20.994;2023-10-19T04:31:06;4.10;99.90
17483;DHT22;8858;52.308;20.994;2023-10-19T04:33:38;4.10;99.90
17483;DHT22;8858;52.308;20.994;2023-10-19T04:36:06;4.10;99.90
17483;DHT22;8858;52.308;20.994;2023-10-19T04:38:38;4.10;99.90
17483;DHT22;8858;52.308;20.994;2023-10-19T04:41:07;4.10;99.90
17483;DHT22;8858;52.308;20.994;2023-10-19T04:43:38;4.10;99.90
17483;DHT22;8858;52.308;20.994;2023-10-19T04:46:08;4.10;99.90
17483;DHT22;8858;52.308;20.994;2023-10-19T04:48:39;4.10;99.90
17483;DHT22;8858;52.308;20.994;2023-10-19T04:51:12;4.10;99.90
17483;DHT22;8858;52.308;20.994;2023-10-19T04:53:41;4.10;99.90
17483;DHT22;8858;52.308;20.994;2023-10-19T04:56:10;4.10;99.90
17483;DHT22;8858;52.308;20.994;2023-10-19T04:58:42;4.10;99.90
17483;DHT22;8858;52.308;20.994;2023-10-19T05:01:10;4.10;99.90
17483;DHT22;8858;52.308;20.994;2023-10-19T05:03:39;4.10;99.90
17483;DHT22;8858;52.308;20.994;2023-10-19T05:06:08;4.10;99.90
17483;DHT22;8858;52.308;20.994;2023-10-19T05:08:37;4.10;99.90
17483;DHT22;8858;52.308;20.994;2023-10-19T05:11:05;4.10;99.90
17483;DHT22;8858;52.308;20.994;2023-10-19T05:13:35;4.10;99.90
17483;DHT22;8858;52.308;20.994;2023-10-19T05:16:05;4.10;99.90
17483;DHT22;8858;52.308;20.994;2023-10-19T05:18:34;4.10;99.90
17483;DHT22;8858;52.308;20.994;2023-10-19T05:21:02;4.10;99.90
17483;DHT22;8858;52.308;20.994;2023-10-19T05:23:32;4.10;99.90
17483;DHT22;8858;52.308;20.994;2023-10-19T05:26:04;4.10;99.90
17483;DHT22;8858;52.308;20.994;2023-10-19T05:28:34;4.10;99.90
17483;DHT22;8858;52.308;20.994;2023-10-19T05:31:03;4.10;99.90
17483;DHT22;8858;52.308;20.994;2023-10-19T05:33:32;4.10;99.90
17483;DHT22;8858;52.308;20.994;2023-10-19T05:36:00;4.10;99.90
17483;DHT22;8858;52.308;20.994;2023-10-19T05:38:30;4.10;99.90
17483;DHT22;8858;52.308;20.994;2023-10-19T05:40:59;4.10;99.90
17483;DHT22;8858;52.308;20.994;2023-10-19T05:43:27;4.10;99.90
17483;DHT22;8858;52.308;20.994;2023-10-19T05:45:56;4.20;99.90
17483;DHT22;8858;52.308;20.994;2023-10-19T05:48:24;4.20;99.90
17483;DHT22;8858;52.308;20.994;2023-10-19T05:50:54;4.20;99.90
17483;DHT22;8858;52.308;20.994;2023-10-19T05:53:24;4.20;99.90
17483;DHT22;8858;52.308;20.994;2023-10-19T05:55:52;4.20;99.90
17483;DHT22;8858;52.308;20.994;2023-10-19T05:58:21;4.30;99.90
17483;DHT22;8858;52.308;20.994;2023-10-19T06:00:49;4.30;99.90
17483;DHT22;8858;52.308;20.994;2023-10-19T06:03:19;4.30;99.90
17483;DHT22;8858;52.308;20.994;2023-10-19T06:05:47;4.40;99.90
17483;DHT22;8858;52.308;20.994;2023-10-19T06:08:19;4.40;99.90
17483;DHT22;8858;52.308;20.994;2023-10-19T06:10:51;4.40;99.90
17483;DHT22;8858;52.308;20.994;2023-10-19T06:13:21;4.40;99.90
17483;DHT22;8858;52.308;20.994;2023-10-19T06:15:53;4.50;99.90
17483;DHT22;8858;52.308;20.994;2023-10-19T06:18:23;4.60;99.90
17483;DHT22;8858;52.308;20.994;2023-10-19T06:20:51;4.60;99.90
17483;DHT22;8858;52.308;20.994;2023-10-19T06:23:24;4.60;99.90
17483;DHT22;8858;52.308;20.994;2023-10-19T06:25:54;4.70;99.90
17483;DHT22;8858;52.308;20.994;2023-10-19T06:28:22;4.70;99.90
17483;DHT22;8858;52.308;20.994;2023-10-19T06:30:50;4.70;99.90
17483;DHT22;8858;52.308;20.994;2023-10-19T06:33:19;4.80;99.90
17483;DHT22;8858;52.308;20.994;2023-10-19T06:35:51;4.90;99.90
17483;DHT22;8858;52.308;20.994;2023-10-19T06:38:23;4.90;99.90
17483;DHT22;8858;52.308;20.994;2023-10-19T06:40:51;5.00;99.90
17483;DHT22;8858;52.308;20.994;2023-10-19T06:43:20;5.00;99.90
17483;DHT22;8858;52.308;20.994;2023-10-19T06:45:50;5.10;99.90
17483;DHT22;8858;52.308;20.994;2023-10-19T06:48:20;5.10;99.90
17483;DHT22;8858;52.308;20.994;2023-10-19T06:50:49;5.10;99.90
17483;DHT22;8858;52.308;20.994;2023-10-19T06:53:18;5.20;99.90
17483;DHT22;8858;52.308;20.994;2023-10-19T06:55:48;5.20;99.90
17483;DHT22;8858;52.308;20.994;2023-10-19T06:58:17;5.30;99.90
17483;DHT22;8858;52.308;20.994;2023-10-19T07:00:46;5.40;99.90
17483;DHT22;8858;52.308;20.994;2023-10-19T07:03:23;5.40;99.90
17483;DHT22;8858;52.308;20.994;2023-10-19T07:05:52;5.50;99.90
17483;DHT22;8858;52.308;20.994;2023-10-19T07:08:24;5.60;99.90
17483;DHT22;8858;52.308;20.994;2023-10-19T07:10:56;5.60;99.90
17483;DHT22;8858;52.308;20.994;2023-10-19T07:13:25;5.70;99.90
17483;DHT22;8858;52.308;20.994;2023-10-19T07:15:54;5.80;99.90
17483;DHT22;8858;52.308;20.994;2023-10-19T07:18:22;5.80;99.90
17483;DHT22;8858;52.308;20.994;2023-10-19T07:20:53;5.90;99.90
17483;DHT22;8858;52.308;20.994;2023-10-19T07:23:29;6.00;99.90
17483;DHT22;8858;52.308;20.994;2023-10-19T07:26:05;6.10;99.90
17483;DHT22;8858;52.308;20.994;2023-10-19T07:28:34;6.20;99.90
17483;DHT22;8858;52.308;20.994;2023-10-19T07:31:08;6.30;99.90
17483;DHT22;8858;52.308;20.994;2023-10-19T07:33:40;6.40;99.90
17483;DHT22;8858;52.308;20.994;2023-10-19T07:36:16;6.50;99.90
17483;DHT22;8858;52.308;20.994;2023-10-19T07:38:46;6.60;99.90
17483;DHT22;8858;52.308;20.994;2023-10-19T07:41:16;6.70;99.90
17483;DHT22;8858;52.308;20.994;2023-10-19T07:43:45;6.80;99.90
17483;DHT22;8858;52.308;20.994;2023-10-19T07:46:14;6.90;99.90
17483;DHT22;8858;52.308;20.994;2023-10-19T07:48:46;7.10;99.90
17483;DHT22;8858;52.308;20.994;2023-10-19T07:51:14;7.20;99.90
17483;DHT22;8858;52.308;20.994;2023-10-19T07:53:43;7.30;99.90
17483;DHT22;8858;52.308;20.994;2023-10-19T07:56:12;7.40;99.90
17483;DHT22;8858;52.308;20.994;2023-10-19T07:58:42;7.50;99.90
17483;DHT22;8858;52.308;20.994;2023-10-19T08:01:14;7.60;99.90
17483;DHT22;8858;52.308;20.994;2023-10-19T08:03:43;7.70;99.90
17483;DHT22;8858;52.308;20.994;2023-10-19T08:06:11;7.90;99.90
17483;DHT22;8858;52.308;20.994;2023-10-19T08:08:39;7.90;99.90
17483;DHT22;8858;52.308;20.994;2023-10-19T08:11:09;8.10;99.90
17483;DHT22;8858;52.308;20.994;2023-10-19T08:13:42;8.10;99.90
17483;DHT22;8858;52.308;20.994;2023-10-19T08:16:10;8.20;99.90
17483;DHT22;8858;52.308;20.994;2023-10-19T08:18:39;8.30;99.90
17483;DHT22;8858;52.308;20.994;2023-10-19T08:21:07;8.40;99.90
17483;DHT22;8858;52.308;20.994;2023-10-19T08:23:36;8.50;99.90
17483;DHT22;8858;52.308;20.994;2023-10-19T08:26:04;8.60;99.90
17483;DHT22;8858;52.308;20.994;2023-10-19T08:28:33;8.60;99.90
17483;DHT22;8858;52.308;20.994;2023-10-19T08:31:03;8.70;99.90
17483;DHT22;8858;52.308;20.994;2023-10-19T08:33:32;8.80;99.90
17483;DHT22;8858;52.308;20.994;2023-10-19T08:36:01;8.90;99.90
17483;DHT22;8858;52.308;20.994;2023-10-19T08:38:30;8.90;99.90
17483;DHT22;8858;52.308;20.994;2023-10-19T08:40:59;9.00;99.90
17483;DHT22;8858;52.308;20.994;2023-10-19T08:43:28;9.10;99.90
17483;DHT22;8858;52.308;20.994;2023-10-19T08:46:02;9.10;99.90
17483;DHT22;8858;52.308;20.994;2023-10-19T08:48:33;9.20;99.90
17483;DHT22;8858;52.308;20.994;2023-10-19T08:51:09;9.20;99.90
17483;DHT22;8858;52.308;20.994;2023-10-19T08:53:38;9.30;99.90
17483;DHT22;8858;52.308;20.994;2023-10-19T08:56:09;9.40;99.90
17483;DHT22;8858;52.308;20.994;2023-10-19T08:58:42;9.40;99.90
17483;DHT22;8858;52.308;20.994;2023-10-19T09:01:14;9.50;99.90
17483;DHT22;8858;52.308;20.994;2023-10-19T09:03:45;9.60;99.90
17483;DHT22;8858;52.308;20.994;2023-10-19T09:06:13;9.70;99.90
17483;DHT22;8858;52.308;20.994;2023-10-19T09:08:42;9.80;99.90
17483;DHT22;8858;52.308;20.994;2023-10-19T09:11:14;9.90;99.90
17483;DHT22;8858;52.308;20.994;2023-10-19T09:13:46;9.90;99.90
17483;DHT22;8858;52.308;20.994;2023-10-19T09:16:20;10.00;99.90
17483;DHT22;8858;52.308;20.994;2023-10-19T09:18:51;10.10;99.90
17483;DHT22;8858;52.308;20.994;2023-10-19T09:21:20;10.30;99.90
17483;DHT22;8858;52.308;20.994;2023-10-19T09:23:53;10.40;99.90
17483;DHT22;8858;52.308;20.994;2023-10-19T09:26:23;10.50;99.90
17483;DHT22;8858;52.308;20.994;2023-10-19T09:28:52;10.60;99.90
17483;DHT22;8858;52.308;20.994;2023-10-19T09:31:26;10.70;99.90
17483;DHT22;8858;52.308;20.994;2023-10-19T09:33:55;10.80;99.90
17483;DHT22;8858;52.308;20.994;2023-10-19T09:36:25;11.00;99.90
17483;DHT22;8858;52.308;20.994;2023-10-19T09:38:57;11.10;99.90
17483;DHT22;8858;52.308;20.994;2023-10-19T09:41:28;11.20;99.90
17483;DHT22;8858;52.308;20.994;2023-10-19T09:44:00;11.30;99.90
17483;DHT22;8858;52.308;20.994;2023-10-19T09:46:34;11.30;99.90
17483;DHT22;8858;52.308;20.994;2023-10-19T09:49:07;11.50;99.90
17483;DHT22;8858;52.308;20.994;2023-10-19T09:51:39;11.60;99.90
17483;DHT22;8858;52.308;20.994;2023-10-19T09:54:27;11.80;99.90
17483;DHT22;8858;52.308;20.994;2023-10-19T09:57:03;11.90;99.90
17483;DHT22;8858;52.308;20.994;2023-10-19T09:59:39;11.90;99.90
17483;DHT22;8858;52.308;20.994;2023-10-19T10:02:10;11.90;99.90
17483;DHT22;8858;52.308;20.994;2023-10-19T10:04:42;11.90;99.90
17483;DHT22;8858;52.308;20.994;2023-10-19T10:07:13;12.00;99.90
17483;DHT22;8858;52.308;20.994;2023-10-19T10:10:03;12.00;99.90
17483;DHT22;8858;52.308;20.994;2023-10-19T10:12:32;12.00;99.90
17483;DHT22;8858;52.308;20.994;2023-10-19T10:15:03;12.10;99.90
17483;DHT22;8858;52.308;20.994;2023-10-19T10:17:38;12.10;99.90
17483;DHT22;8858;52.308;20.994;2023-10-19T10:20:29;12.10;99.90
17483;DHT22;8858;52.308;20.994;2023-10-19T10:23:18;12.10;99.90
17483;DHT22;8858;52.308;20.994;2023-10-19T10:25:53;12.20;99.90
17483;DHT22;8858;52.308;20.994;2023-10-19T10:28:22;12.20;99.90
17483;DHT22;8858;52.308;20.994;2023-10-19T10:31:10;12.20;99.90
17483;DHT22;8858;52.308;20.994;2023-10-19T10:33:47;12.20;99.90
17483;DHT22;8858;52.308;20.994;2023-10-19T10:36:17;12.20;99.90
17483;DHT22;8858;52.308;20.994;2023-10-19T10:38:46;12.20;99.90
17483;DHT22;8858;52.308;20.994;2023-10-19T10:41:21;12.20;99.90
17483;DHT22;8858;52.308;20.994;2023-10-19T10:43:54;12.30;99.90
17483;DHT22;8858;52.308;20.994;2023-10-19T10:46:23;12.30;99.90
17483;DHT22;8858;52.308;20.994;2023-10-19T10:48:53;12.30;99.90
17483;DHT22;8858;52.308;20.994;2023-10-19T10:51:25;12.40;99.90
17483;DHT22;8858;52.308;20.994;2023-10-19T10:53:54;12.40;99.90
17483;DHT22;8858;52.308;20.994;2023-10-19T10:56:25;12.40;99.90
17483;DHT22;8858;52.308;20.994;2023-10-19T10:58:53;12.50;99.90
17483;DHT22;8858;52.308;20.994;2023-10-19T11:01:30;12.50;99.90
17483;DHT22;8858;52.308;20.994;2023-10-19T11:04:11;12.50;99.90
17483;DHT22;8858;52.308;20.994;2023-10-19T11:06:48;12.60;99.90
17483;DHT22;8858;52.308;20.994;2023-10-19T11:09:17;12.50;99.90
17483;DHT22;8858;52.308;20.994;2023-10-19T11:11:46;12.50;99.90
17483;DHT22;8858;52.308;20.994;2023-10-19T11:14:16;12.50;99.90
17483;DHT22;8858;52.308;20.994;2023-10-19T11:16:44;12.50;99.90
17483;DHT22;8858;52.308;20.994;2023-10-19T11:19:15;12.60;99.90
17483;DHT22;8858;52.308;20.994;2023-10-19T11:21:54;12.60;99.90
17483;DHT22;8858;52.308;20.994;2023-10-19T11:24:26;12.70;99.90
17483;DHT22;8858;52.308;20.994;2023-10-19T11:26:58;12.70;99.90
17483;DHT22;8858;52.308;20.994;2023-10-19T11:29:28;12.80;99.90
17483;DHT22;8858;52.308;20.994;2023-10-19T11:32:02;12.80;99.90
17483;DHT22;8858;52.308;20.994;2023-10-19T11:34:32;12.90;99.90
17483;DHT22;8858;52.308;20.994;2023-10-19T11:37:05;13.00;99.90
17483;DHT22;8858;52.308;20.994;2023-10-19T11:39:35;13.00;99.90
17483;DHT22;8858;52.308;20.994;2023-10-19T11:42:04;13.10;99.90
17483;DHT22;8858;52.308;20.994;2023-10-19T11:44:32;13.10;99.90
17483;DHT22;8858;52.308;20.994;2023-10-19T11:47:01;13.00;99.90
17483;DHT22;8858;52.308;20.994;2023-10-19T11:49:35;13.00;99.90
17483;DHT22;8858;52.308;20.994;2023-10-19T11:52:05;13.00;99.90
17483;DHT22;8858;52.308;20.994;2023-10-19T11:54:34;13.00;99.90
17483;DHT22;8858;52.308;20.994;2023-10-19T11:57:07;13.00;99.90
17483;DHT22;8858;52.308;20.994;2023-10-19T11:59:36;13.00;99.90
17483;DHT22;8858;52.308;20.994;2023-10-19T12:02:05;13.00;99.90
17483;DHT22;8858;52.308;20.994;2023-10-19T12:04:35;12.90;99.90
17483;DHT22;8858;52.308;20.994;2023-10-19T12:07:03;12.90;99.90
17483;DHT22;8858;52.308;20.994;2023-10-19T12:09:33;12.80;99.90
17483;DHT22;8858;52.308;20.994;2023-10-19T12:12:03;12.80;99.90
17483;DHT22;8858;52.308;20.994;2023-10-19T12:14:32;12.80;99.90
17483;DHT22;8858;52.308;20.994;2023-10-19T12:17:02;12.80;99.90
17483;DHT22;8858;52.308;20.994;2023-10-19T12:19:39;12.80;99.90
17483;DHT22;8858;52.308;20.994;2023-10-19T12:22:08;12.90;99.90
17483;DHT22;8858;52.308;20.994;2023-10-19T12:24:36;12.90;99.90
17483;DHT22;8858;52.308;20.994;2023-10-19T12:27:05;12.90;99.90
17483;DHT22;8858;52.308;20.994;2023-10-19T12:29:38;13.00;99.90
17483;DHT22;8858;52.308;20.994;2023-10-19T12:32:07;13.00;99.90
17483;DHT22;8858;52.308;20.994;2023-10-19T12:34:39;13.10;99.90
17483;DHT22;8858;52.308;20.994;2023-10-19T12:37:08;13.20;99.90
17483;DHT22;8858;52.308;20.994;2023-10-19T12:39:38;13.10;99.90
17483;DHT22;8858;52.308;20.994;2023-10-19T12:42:13;13.10;99.90
17483;DHT22;8858;52.308;20.994;2023-10-19T12:44:42;13.10;99.90
17483;DHT22;8858;52.308;20.994;2023-10-19T12:47:14;13.10;99.90
17483;DHT22;8858;52.308;20.994;2023-10-19T12:49:45;13.10;99.90
17483;DHT22;8858;52.308;20.994;2023-10-19T12:52:16;13.10;99.90
17483;DHT22;8858;52.308;20.994;2023-10-19T12:54:44;13.00;99.90
17483;DHT22;8858;52.308;20.994;2023-10-19T12:57:18;13.00;99.90
17483;DHT22;8858;52.308;20.994;2023-10-19T12:59:47;12.90;99.90
17483;DHT22;8858;52.308;20.994;2023-10-19T13:02:16;12.80;99.90
17483;DHT22;8858;52.308;20.994;2023-10-19T13:04:47;12.80;99.90
17483;DHT22;8858;52.308;20.994;2023-10-19T13:07:17;12.70;99.90
17483;DHT22;8858;52.308;20.994;2023-10-19T13:09:47;12.60;99.90
17483;DHT22;8858;52.308;20.994;2023-10-19T13:12:16;12.60;99.90
17483;DHT22;8858;52.308;20.994;2023-10-19T13:14:50;12.50;99.90
17483;DHT22;8858;52.308;20.994;2023-10-19T13:17:20;12.40;99.90
17483;DHT22;8858;52.308;20.994;2023-10-19T13:19:50;12.30;99.90
17483;DHT22;8858;52.308;20.994;2023-10-19T13:22:25;12.30;99.90
17483;DHT22;8858;52.308;20.994;2023-10-19T13:24:53;12.30;99.90
17483;DHT22;8858;52.308;20.994;2023-10-19T13:27:23;12.20;99.90
17483;DHT22;8858;52.308;20.994;2023-10-19T13:29:53;12.20;99.90
17483;DHT22;8858;52.308;20.994;2023-10-19T13:32:27;12.10;99.90
17483;DHT22;8858;52.308;20.994;2023-10-19T13:34:58;12.10;99.90
17483;DHT22;8858;52.308;20.994;2023-10-19T13:37:26;12.10;99.90
17483;DHT22;8858;52.308;20.994;2023-10-19T13:40:00;12.00;99.90
17483;DHT22;8858;52.308;20.994;2023-10-19T13:42:32;12.00;99.90
17483;DHT22;8858;52.308;20.994;2023-10-19T13:45:02;11.90;99.90
17483;DHT22;8858;52.308;20.994;2023-10-19T13:47:31;11.90;99.90
17483;DHT22;8858;52.308;20.994;2023-10-19T13:50:02;11.90;99.90
17483;DHT22;8858;52.308;20.994;2023-10-19T13:52:31;11.90;99.90
17483;DHT22;8858;52.308;20.994;2023-10-19T13:55:00;11.90;99.90
17483;DHT22;8858;52.308;20.994;2023-10-19T13:57:30;11.90;99.90
17483;DHT22;8858;52.308;20.994;2023-10-19T13:59:58;11.90;99.90
17483;DHT22;8858;52.308;20.994;2023-10-19T14:02:30;11.90;99.90
17483;DHT22;8858;52.308;20.994;2023-10-19T14:04:59;11.90;99.90
17483;DHT22;8858;52.308;20.994;2023-10-19T14:07:29;11.90;99.90
17483;DHT22;8858;52.308;20.994;2023-10-19T14:09:59;11.90;99.90
17483;DHT22;8858;52.308;20.994;2023-10-19T14:12:28;11.90;99.90
17483;DHT22;8858;52.308;20.994;2023-10-19T14:14:57;11.90;99.90
17483;DHT22;8858;52.308;20.994;2023-10-19T14:17:26;11.80;99.90
17483;DHT22;8858;52.308;20.994;2023-10-19T14:19:55;11.90;99.90
17483;DHT22;8858;52.308;20.994;2023-10-19T14:22:23;11.80;99.90
17483;DHT22;8858;52.308;20.994;2023-10-19T14:24:55;11.80;99.90
17483;DHT22;8858;52.308;20.994;2023-10-19T14:27:23;11.80;99.90
17483;DHT22;8858;52.308;20.994;2023-10-19T14:29:55;11.80;99.90
17483;DHT22;8858;52.308;20.994;2023-10-19T14:32:24;11.80;99.90
17483;DHT22;8858;52.308;20.994;2023-10-19T14:34:54;11.80;99.90
17483;DHT22;8858;52.308;20.994;2023-10-19T14:37:23;11.80;99.90
17483;DHT22;8858;52.308;20.994;2023-10-19T14:39:52;11.70;99.90
17483;DHT22;8858;52.308;20.994;2023-10-19T14:42:21;11.70;99.90
17483;DHT22;8858;52.308;20.994;2023-10-19T14:44:52;11.70;99.90
17483;DHT22;8858;52.308;20.994;2023-10-19T14:47:20;11.70;99.90
17483;DHT22;8858;52.308;20.994;2023-10-19T14:49:48;11.60;99.90
17483;DHT22;8858;52.308;20.994;2023-10-19T14:52:16;11.60;99.90
17483;DHT22;8858;52.308;20.994;2023-10-19T14:54:45;11.60;99.90
17483;DHT22;8858;52.308;20.994;2023-10-19T14:57:13;11.60;99.90
17483;DHT22;8858;52.308;20.994;2023-10-19T14:59:42;11.60;99.90
17483;DHT22;8858;52.308;20.994;2023-10-19T15:02:12;11.60;99.90
17483;DHT22;8858;52.308;20.994;2023-10-19T15:04:40;11.60;99.90
17483;DHT22;8858;52.308;20.994;2023-10-19T15:07:10;11.50;99.90
17483;DHT22;8858;52.308;20.994;2023-10-19T15:09:39;11.50;99.90
17483;DHT22;8858;52.308;20.994;2023-10-19T15:12:07;11.50;99.90
17483;DHT22;8858;52.308;20.994;2023-10-19T15:14:43;11.50;99.90
17483;DHT22;8858;52.308;20.994;2023-10-19T15:17:11;11.50;99.90
17483;DHT22;8858;52.308;20.994;2023-10-19T15:19:39;11.40;99.90
17483;DHT22;8858;52.308;20.994;2023-10-19T15:22:08;11.40;99.90
17483;DHT22;8858;52.308;20.994;2023-10-19T15:24:37;11.40;99.90
17483;DHT22;8858;52.308;20.994;2023-10-19T15:27:05;11.40;99.90
17483;DHT22;8858;52.308;20.994;2023-10-19T15:29:36;11.40;99.90
17483;DHT22;8858;52.308;20.994;2023-10-19T15:32:06;11.40;99.90
17483;DHT22;8858;52.308;20.994;2023-10-19T15:34:35;11.40;99.90
17483;DHT22;8858;52.308;20.994;2023-10-19T15:37:05;11.30;99.90
17483;DHT22;8858;52.308;20.994;2023-10-19T15:39:34;11.30;99.90
17483;DHT22;8858;52.308;20.994;2023-10-19T15:42:04;11.30;99.90
17483;DHT22;8858;52.308;20.994;2023-10-19T15:44:36;11.30;99.90
17483;DHT22;8858;52.308;20.994;2023-10-19T15:47:06;11.20;99.90
17483;DHT22;8858;52.308;20.994;2023-10-19T15:49:46;11.20;99.90
17483;DHT22;8858;52.308;20.994;2023-10-19T15:52:19;11.30;99.90
17483;DHT22;8858;52.308;20.994;2023-10-19T15:54:48;11.20;99.90
17483;DHT22;8858;52.308;20.994;2023-10-19T15:57:18;11.20;99.90
17483;DHT22;8858;52.308;20.994;2023-10-19T15:59:47;11.20;99.90
17483;DHT22;8858;52.308;20.994;2023-10-19T16:02:23;11.20;99.90
17483;DHT22;8858;52.308;20.994;2023-10-19T16:04:52;11.20;99.90